Time;durP1;ratioP1;P1;durP2;ratioP2;P2;SDS_P1;SDS_P2;PMS_P1;PMS_P2;Temp;Humidity;BMP_temperature;BMP_pressure;BME280_temperature;BME280_humidity;BME280_pressure;Samples;Min_cycle;Max_cycle;Signal;HPM_P1;HPM_P2
2023/08/21 00:01:59;;;;;;;15.00;6.93;;;;;;;;;;5019725;28;20077;-65
2023/08/21 00:04:27;;;;;;;9.55;6.60;;;;;;;;;;5022417;28;20429;-68
2023/08/21 00:06:56;;;;;;;9.65;5.97;;;;;;;;;;5022592;28;20048;-66
2023/08/21 00:09:24;;;;;;;11.18;6.45;;;;;;;;;;5022829;28;20535;-66
2023/08/21 00:11:53;;;;;;;9.40;6.05;;;;;;;;;;5023207;28;20046;-67
2023/08/21 00:14:21;;;;;;;9.02;6.03;;;;;;;;;;5024897;28;20427;-64
2023/08/21 00:16:51;;;;;;;9.65;6.50;;;;;;;;;;5019508;28;20528;-67
2023/08/21 00:19:20;;;;;;;12.00;6.13;;;;;;;;;;5022028;28;20075;-64
2023/08/21 00:21:48;;;;;;;9.30;6.43;;;;;;;;;;5021025;28;20743;-63
2023/08/21 00:24:17;;;;;;;9.73;6.00;;;;;;;;;;5021153;28;20050;-65
2023/08/21 00:26:45;;;;;;;12.95;6.05;;;;;;;;;;5022138;28;20505;-67
2023/08/21 00:29:13;;;;;;;8.45;6.18;;;;;;;;;;5021793;28;20083;-65
2023/08/21 00:31:42;;;;;;;9.02;5.80;;;;;;;;;;5022190;28;20111;-65
2023/08/21 00:34:11;;;;;;;10.20;5.93;;;;;;;;;;5023733;28;20460;-65
2023/08/21 00:36:40;;;;;;;8.48;6.10;;;;;;;;;;5025540;28;20528;-64
2023/08/21 00:39:08;;;;;;;8.35;5.93;;;;;;;;;;5024782;28;20037;-65
2023/08/21 00:41:37;;;;;;;10.68;6.07;;;;;;;;;;5027001;28;20049;-66
2023/08/21 00:44:05;;;;;;;9.20;6.28;;;;;;;;;;5026862;28;20443;-65
2023/08/21 00:46:33;;;;;;;10.13;6.30;;;;;;;;;;5025494;28;20063;-64
2023/08/21 00:49:03;;;;;;;8.90;6.22;;;;;;;;;;5023004;28;20049;-65
2023/08/21 00:51:32;;;;;;;8.55;6.00;;;;;;;;;;5025505;28;20058;-67
2023/08/21 00:54:01;;;;;;;10.57;6.00;;;;;;;;;;5026289;28;20410;-64
2023/08/21 00:56:30;;;;;;;11.90;6.78;;;;;;;;;;5028668;28;20494;-64
2023/08/21 00:58:58;;;;;;;14.30;6.28;;;;;;;;;;5025390;28;20091;-65
2023/08/21 01:01:27;;;;;;;9.18;6.10;;;;;;;;;;5027355;28;20114;-65
2023/08/21 01:03:56;;;;;;;9.52;6.13;;;;;;;;;;5026250;23;20137;-62
2023/08/21 01:06:24;;;;;;;11.10;6.03;;;;;;;;;;5004111;28;20455;-58
2023/08/21 01:08:59;;;;;;;11.82;6.60;;;;;;;;;;5003267;28;20054;-57
2023/08/21 01:11:33;;;;;;;9.55;6.50;;;;;;;;;;5000064;28;20552;-61
2023/08/21 01:14:04;;;;;;;9.50;6.30;;;;;;;;;;5003082;28;20438;-60
2023/08/21 01:16:33;;;;;;;11.43;6.95;;;;;;;;;;5004683;28;20053;-61
2023/08/21 01:19:03;;;;;;;15.05;7.10;;;;;;;;;;5002063;28;20073;-60
2023/08/21 01:21:31;;;;;;;10.90;6.72;;;;;;;;;;5006001;28;20081;-60
2023/08/21 01:24:01;;;;;;;10.02;6.60;;;;;;;;;;5000532;28;20159;-60
2023/08/21 01:26:29;;;;;;;10.45;6.35;;;;;;;;;;5005384;28;20053;-62
2023/08/21 01:28:58;;;;;;;11.63;6.20;;;;;;;;;;5005300;28;20131;-61
2023/08/21 01:31:28;;;;;;;12.23;6.63;;;;;;;;;;5003182;28;20049;-62
2023/08/21 01:33:59;;;;;;;12.30;6.95;;;;;;;;;;5004929;28;20112;-60
2023/08/21 01:36:28;;;;;;;10.98;6.70;;;;;;;;;;5003282;28;20104;-60
2023/08/21 01:38:56;;;;;;;12.48;6.90;;;;;;;;;;5004350;28;20683;-58
2023/08/21 01:41:26;;;;;;;10.68;6.97;;;;;;;;;;5003582;28;20137;-62
2023/08/21 01:43:54;;;;;;;14.32;7.40;;;;;;;;;;5004132;28;20107;-59
2023/08/21 01:46:23;;;;;;;9.82;6.40;;;;;;;;;;5005232;28;20165;-59
2023/08/21 01:48:51;;;;;;;9.35;6.00;;;;;;;;;;5006101;28;20049;-59
2023/08/21 01:51:20;;;;;;;9.25;5.95;;;;;;;;;;5004558;28;20054;-58
2023/08/21 01:53:49;;;;;;;9.73;6.25;;;;;;;;;;5002463;28;20123;-59
2023/08/21 01:56:17;;;;;;;10.45;6.90;;;;;;;;;;5005220;28;20454;-59
2023/08/21 01:58:47;;;;;;;9.52;6.22;;;;;;;;;;5004492;28;20073;-59
2023/08/21 02:01:15;;;;;;;9.45;6.00;;;;;;;;;;5004644;28;20458;-59
2023/08/21 02:03:44;;;;;;;11.13;6.13;;;;;;;;;;5005140;28;20092;-59
2023/08/21 02:06:12;;;;;;;9.23;6.32;;;;;;;;;;5002376;28;20473;-60
2023/08/21 02:08:40;;;;;;;9.13;5.90;;;;;;;;;;5003842;28;20046;-61
2023/08/21 02:11:09;;;;;;;10.57;6.00;;;;;;;;;;5001305;28;20458;-58
2023/08/21 02:13:37;;;;;;;7.47;5.70;;;;;;;;;;5004316;28;20046;-58
2023/08/21 02:16:07;;;;;;;11.23;6.65;;;;;;;;;;5004395;28;20069;-59
2023/08/21 02:18:35;;;;;;;9.50;5.82;;;;;;;;;;5003339;28;20056;-59
2023/08/21 02:21:04;;;;;;;10.32;6.10;;;;;;;;;;5005712;28;20060;-63
2023/08/21 02:23:32;;;;;;;7.40;5.68;;;;;;;;;;5003892;28;20046;-59
2023/08/21 02:26:00;;;;;;;10.18;6.45;;;;;;;;;;5004811;28;20832;-59
2023/08/21 02:28:29;;;;;;;13.55;6.10;;;;;;;;;;5004259;28;20042;-59
2023/08/21 02:30:57;;;;;;;16.08;6.72;;;;;;;;;;5002268;28;20340;-63
2023/08/21 02:33:27;;;;;;;11.40;6.35;;;;;;;;;;5004475;28;20045;-63
2023/08/21 02:35:55;;;;;;;9.98;6.20;;;;;;;;;;5002550;28;20181;-58
2023/08/21 02:38:24;;;;;;;8.23;5.75;;;;;;;;;;5003297;28;20042;-58
2023/08/21 02:40:52;;;;;;;8.90;6.05;;;;;;;;;;5002572;28;20454;-62
2023/08/21 02:43:20;;;;;;;10.40;6.53;;;;;;;;;;5002907;28;20455;-60
2023/08/21 02:45:49;;;;;;;10.45;6.05;;;;;;;;;;5004393;28;20053;-62
2023/08/21 02:48:17;;;;;;;11.52;6.38;;;;;;;;;;5005122;28;20139;-58
2023/08/21 02:50:47;;;;;;;9.93;5.93;;;;;;;;;;5003140;28;20060;-62
2023/08/21 02:53:15;;;;;;;9.60;6.22;;;;;;;;;;5004727;28;20511;-58
2023/08/21 02:55:44;;;;;;;12.35;5.90;;;;;;;;;;4999964;28;20371;-57
2023/08/21 02:58:12;;;;;;;11.32;6.18;;;;;;;;;;5003543;28;20046;-58
2023/08/21 03:00:40;;;;;;;10.52;6.38;;;;;;;;;;5003066;28;20189;-58
2023/08/21 03:03:09;;;;;;;11.52;6.20;;;;;;;;;;5004206;28;20075;-59
2023/08/21 03:05:37;;;;;;;9.15;6.20;;;;;;;;;;4997303;28;20085;-60
2023/08/21 03:08:07;;;;;;;6.90;5.40;;;;;;;;;;5003828;28;20078;-59
2023/08/21 03:10:36;;;;;;;11.25;6.10;;;;;;;;;;4999976;28;20052;-58
2023/08/21 03:13:05;;;;;;;9.80;5.90;;;;;;;;;;5000378;28;20054;-57
2023/08/21 03:15:33;;;;;;;7.63;5.57;;;;;;;;;;5003600;28;20034;-58
2023/08/21 03:18:01;;;;;;;12.23;6.10;;;;;;;;;;5000455;28;20046;-59
2023/08/21 03:20:30;;;;;;;9.18;5.43;;;;;;;;;;5000795;28;20133;-59
2023/08/21 03:22:58;;;;;;;10.23;5.22;;;;;;;;;;5003665;28;20234;-59
2023/08/21 03:25:28;;;;;;;10.48;6.05;;;;;;;;;;5001621;28;20116;-62
2023/08/21 03:27:57;;;;;;;10.32;5.85;;;;;;;;;;5002141;28;20471;-60
2023/08/21 03:30:25;;;;;;;9.90;5.90;;;;;;;;;;5001003;28;20057;-64
2023/08/21 03:32:53;;;;;;;8.68;5.72;;;;;;;;;;5003602;28;20266;-60
2023/08/21 03:35:22;;;;;;;9.55;5.72;;;;;;;;;;5001737;28;20096;-59
2023/08/21 03:37:50;;;;;;;10.10;6.03;;;;;;;;;;5004359;28;20042;-57
2023/08/21 03:40:19;;;;;;;11.32;5.53;;;;;;;;;;4998540;28;20419;-60
2023/08/21 03:42:48;;;;;;;10.82;6.53;;;;;;;;;;5003305;28;20050;-59
2023/08/21 03:45:17;;;;;;;12.10;5.95;;;;;;;;;;5001784;28;20565;-58
2023/08/21 03:47:45;;;;;;;8.15;5.40;;;;;;;;;;4997995;28;20379;-59
2023/08/21 03:50:14;;;;;;;8.95;5.97;;;;;;;;;;5000958;28;20906;-58
2023/08/21 03:52:42;;;;;;;8.73;5.93;;;;;;;;;;5002135;28;20057;-61
2023/08/21 03:55:10;;;;;;;10.13;5.20;;;;;;;;;;5001198;28;20077;-64
2023/08/21 03:57:39;;;;;;;12.85;6.18;;;;;;;;;;5003597;28;20053;-59
2023/08/21 04:00:09;;;;;;;14.57;6.20;;;;;;;;;;5000495;28;20395;-63
2023/08/21 04:02:38;;;;;;;12.30;5.53;;;;;;;;;;5003536;28;20129;-57
2023/08/21 04:05:06;;;;;;;12.35;5.47;;;;;;;;;;5003832;28;20057;-62
2023/08/21 04:07:35;;;;;;;9.15;5.53;;;;;;;;;;5003395;28;20072;-59
2023/08/21 04:10:03;;;;;;;9.15;5.75;;;;;;;;;;5002462;28;21661;-60
2023/08/21 04:12:32;;;;;;;12.18;6.10;;;;;;;;;;5000898;28;20049;-58
2023/08/21 04:15:00;;;;;;;11.20;6.28;;;;;;;;;;5002911;28;20562;-58
2023/08/21 04:17:30;;;;;;;8.32;5.68;;;;;;;;;;5001310;28;20049;-58
2023/08/21 04:19:58;;;;;;;9.93;6.25;;;;;;;;;;5002753;28;20066;-59
2023/08/21 04:22:27;;;;;;;12.10;5.75;;;;;;;;;;5002693;28;20120;-60
2023/08/21 04:24:55;;;;;;;9.07;5.45;;;;;;;;;;5001294;28;20093;-61
2023/08/21 04:27:23;;;;;;;10.35;6.25;;;;;;;;;;4999451;28;20135;-60
2023/08/21 04:29:52;;;;;;;10.25;6.18;;;;;;;;;;5001071;28;20046;-59
2023/08/21 04:32:21;;;;;;;10.63;5.38;;;;;;;;;;4996370;28;20494;-58
2023/08/21 04:34:50;;;;;;;9.80;5.95;;;;;;;;;;4999330;28;20049;-61
2023/08/21 04:37:19;;;;;;;9.68;5.45;;;;;;;;;;4998221;28;20057;-58
2023/08/21 04:39:47;;;;;;;10.05;5.65;;;;;;;;;;5002067;28;20115;-64
2023/08/21 04:42:15;;;;;;;10.35;5.30;;;;;;;;;;5002399;28;20132;-59
2023/08/21 04:44:44;;;;;;;9.70;5.43;;;;;;;;;;5000851;28;20050;-63
2023/08/21 04:47:22;;;;;;;8.05;5.20;;;;;;;;;;5001347;28;20463;-58
2023/08/21 04:49:52;;;;;;;10.68;5.50;;;;;;;;;;5002442;28;20046;-57
2023/08/21 04:52:20;;;;;;;10.15;5.55;;;;;;;;;;5000993;28;20050;-57
2023/08/21 04:54:49;;;;;;;11.95;6.15;;;;;;;;;;5001966;28;20058;-60
2023/08/21 04:57:18;;;;;;;9.43;5.78;;;;;;;;;;4999447;28;20046;-58
2023/08/21 04:59:46;;;;;;;9.73;5.47;;;;;;;;;;5000850;28;20050;-60
2023/08/21 05:02:14;;;;;;;10.65;5.80;;;;;;;;;;5002591;28;20573;-64
2023/08/21 05:04:43;;;;;;;10.00;5.75;;;;;;;;;;5002176;28;20089;-59
2023/08/21 05:07:13;;;;;;;7.38;5.22;;;;;;;;;;4999522;28;20108;-64
2023/08/21 05:09:41;;;;;;;9.27;5.25;;;;;;;;;;4999446;28;20054;-61
2023/08/21 05:12:10;;;;;;;10.65;5.53;;;;;;;;;;4995662;28;20046;-61
2023/08/21 05:14:38;;;;;;;7.90;4.65;;;;;;;;;;5001496;28;20100;-58
2023/08/21 05:17:06;;;;;;;8.55;5.53;;;;;;;;;;5000193;28;20046;-61
2023/08/21 05:19:35;;;;;;;8.70;5.50;;;;;;;;;;4997712;28;20104;-59
2023/08/21 05:22:03;;;;;;;11.05;5.90;;;;;;;;;;5000964;28;20146;-60
2023/08/21 05:24:33;;;;;;;10.25;5.38;;;;;;;;;;5002942;28;20046;-60
2023/08/21 05:27:02;;;;;;;7.28;5.20;;;;;;;;;;5000753;28;20066;-59
2023/08/21 05:29:30;;;;;;;8.73;5.35;;;;;;;;;;5001478;28;20133;-62
2023/08/21 05:31:58;;;;;;;9.55;6.18;;;;;;;;;;4998018;28;20041;-58
2023/08/21 05:34:28;;;;;;;12.27;4.90;;;;;;;;;;4997081;28;20257;-61
2023/08/21 05:36:56;;;;;;;10.60;5.72;;;;;;;;;;4997049;28;20045;-61
2023/08/21 05:39:24;;;;;;;8.60;5.47;;;;;;;;;;5000550;28;20050;-58
2023/08/21 05:41:54;;;;;;;11.55;5.38;;;;;;;;;;4999974;28;20116;-58
2023/08/21 05:44:22;;;;;;;8.13;5.85;;;;;;;;;;5000873;28;20084;-60
2023/08/21 05:46:51;;;;;;;13.70;5.80;;;;;;;;;;4998427;28;20209;-59
2023/08/21 05:49:19;;;;;;;7.10;5.30;;;;;;;;;;5001666;28;20041;-60
2023/08/21 05:51:47;;;;;;;8.05;5.30;;;;;;;;;;5000673;28;20230;-59
2023/08/21 05:54:16;;;;;;;13.15;5.65;;;;;;;;;;4999418;28;20181;-58
2023/08/21 05:56:44;;;;;;;11.77;5.70;;;;;;;;;;4999138;28;20351;-58
2023/08/21 05:59:14;;;;;;;13.73;6.72;;;;;;;;;;5002717;28;20041;-57
2023/08/21 06:01:42;;;;;;;13.88;5.47;;;;;;;;;;4995171;28;20259;-61
2023/08/21 06:04:11;;;;;;;7.55;5.05;;;;;;;;;;5001744;28;20507;-63
2023/08/21 06:06:39;;;;;;;9.45;5.00;;;;;;;;;;4998018;28;20053;-59
2023/08/21 06:09:08;;;;;;;9.55;5.55;;;;;;;;;;5001767;28;20525;-62
2023/08/21 06:11:38;;;;;;;8.90;5.95;;;;;;;;;;5002028;28;20061;-63
2023/08/21 06:14:07;;;;;;;10.75;5.25;;;;;;;;;;5000624;28;20056;-59
2023/08/21 06:16:36;;;;;;;15.32;5.55;;;;;;;;;;5003613;28;20160;-59
2023/08/21 06:19:05;;;;;;;11.27;5.90;;;;;;;;;;5003190;28;20056;-59
2023/08/21 06:21:33;;;;;;;9.82;5.82;;;;;;;;;;5003017;28;20513;-58
2023/08/21 06:24:02;;;;;;;11.88;5.88;;;;;;;;;;5005391;28;20050;-64
2023/08/21 06:26:30;;;;;;;14.15;6.13;;;;;;;;;;5002926;28;20100;-60
2023/08/21 06:28:58;;;;;;;9.95;5.63;;;;;;;;;;5004571;28;20042;-62
2023/08/21 06:31:27;;;;;;;8.98;5.60;;;;;;;;;;5002895;28;20250;-59
2023/08/21 06:33:57;;;;;;;9.68;5.40;;;;;;;;;;5004657;28;20128;-58
2023/08/21 06:36:25;;;;;;;11.50;5.30;;;;;;;;;;5000394;28;20048;-58
2023/08/21 06:38:53;;;;;;;11.80;5.70;;;;;;;;;;5004570;28;20163;-60
2023/08/21 06:41:22;;;;;;;11.18;5.35;;;;;;;;;;5004384;28;20176;-59
2023/08/21 06:43:50;;;;;;;17.67;5.65;;;;;;;;;;5003774;28;20220;-58
2023/08/21 06:46:18;;;;;;;10.88;5.97;;;;;;;;;;5005421;28;20066;-58
2023/08/21 06:48:47;;;;;;;7.82;5.32;;;;;;;;;;5002138;28;20101;-60
2023/08/21 06:51:17;;;;;;;12.85;6.68;;;;;;;;;;5003025;28;20045;-59
2023/08/21 06:53:45;;;;;;;10.18;6.57;;;;;;;;;;5001029;28;20062;-58
2023/08/21 06:56:14;;;;;;;10.30;6.63;;;;;;;;;;5004902;28;20534;-58
2023/08/21 06:58:42;;;;;;;15.70;7.22;;;;;;;;;;5004212;28;20585;-58
2023/08/21 07:01:10;;;;;;;14.10;6.35;;;;;;;;;;4998021;28;20053;-60
2023/08/21 07:03:39;;;;;;;10.70;5.78;;;;;;;;;;4999291;28;20474;-58
2023/08/21 07:06:07;;;;;;;9.18;5.78;;;;;;;;;;5003709;28;20096;-58
2023/08/21 07:08:37;;;;;;;10.82;6.28;;;;;;;;;;5004731;28;20645;-60
2023/08/21 07:11:06;;;;;;;11.38;6.60;;;;;;;;;;5003410;28;20041;-59
2023/08/21 07:13:34;;;;;;;10.60;6.07;;;;;;;;;;4998247;28;20136;-58
2023/08/21 07:16:04;;;;;;;10.07;6.30;;;;;;;;;;5005821;28;20056;-58
2023/08/21 07:18:33;;;;;;;15.48;6.00;;;;;;;;;;5005459;28;20146;-60
2023/08/21 07:21:03;;;;;;;10.50;6.38;;;;;;;;;;5002431;28;20050;-58
2023/08/21 07:23:44;;;;;;;11.27;6.30;;;;;;;;;;5002387;28;20054;-60
2023/08/21 07:26:12;;;;;;;8.80;5.93;;;;;;;;;;5001877;28;20041;-63
2023/08/21 07:28:40;;;;;;;13.13;5.80;;;;;;;;;;4996386;28;20494;-61
2023/08/21 07:31:09;;;;;;;9.73;5.70;;;;;;;;;;5000544;28;20841;-59
2023/08/21 07:33:37;;;;;;;8.60;6.28;;;;;;;;;;5001267;28;20285;-58
2023/08/21 07:36:06;;;;;;;11.52;6.38;;;;;;;;;;4998838;28;20048;-58
2023/08/21 07:38:35;;;;;;;9.77;5.78;;;;;;;;;;5000008;28;20049;-59
2023/08/21 07:41:05;;;;;;;10.30;6.32;;;;;;;;;;4998575;28;20053;-59
2023/08/21 07:43:33;;;;;;;10.02;6.22;;;;;;;;;;5002513;28;20054;-58
2023/08/21 07:46:04;;;;;;;10.10;5.93;;;;;;;;;;5000851;28;20046;-59
2023/08/21 07:48:32;;;;;;;9.18;5.82;;;;;;;;;;5001638;28;20133;-59
2023/08/21 07:51:01;;;;;;;10.25;5.70;;;;;;;;;;4998540;28;20056;-64
2023/08/21 07:53:31;;;;;;;8.13;5.45;;;;;;;;;;5001306;28;20064;-59
2023/08/21 07:55:59;;;;;;;9.15;5.88;;;;;;;;;;4998496;28;20054;-59
2023/08/21 07:58:29;;;;;;;9.23;5.57;;;;;;;;;;5003766;28;20046;-58
2023/08/21 08:00:58;;;;;;;7.40;5.70;;;;;;;;;;5000572;28;20074;-59
2023/08/21 08:03:26;;;;;;;7.68;5.35;;;;;;;;;;5001899;28;20092;-62
2023/08/21 08:05:55;;;;;;;11.93;6.05;;;;;;;;;;5002396;28;20069;-59
2023/08/21 08:08:23;;;;;;;10.02;6.40;;;;;;;;;;5002932;28;20045;-58
2023/08/21 08:10:52;;;;;;;7.65;5.43;;;;;;;;;;5003147;28;20038;-58
2023/08/21 08:13:20;;;;;;;7.72;5.55;;;;;;;;;;4999475;28;20407;-60
2023/08/21 08:15:50;;;;;;;8.20;5.55;;;;;;;;;;5000968;28;20052;-59
2023/08/21 08:18:18;;;;;;;16.67;6.25;;;;;;;;;;5002943;28;20525;-58
2023/08/21 08:20:47;;;;;;;10.95;5.47;;;;;;;;;;4998306;28;20706;-60
2023/08/21 08:23:15;;;;;;;9.18;5.25;;;;;;;;;;5002419;28;20061;-58
2023/08/21 08:25:45;;;;;;;11.05;5.55;;;;;;;;;;5003361;28;20049;-58
2023/08/21 08:28:13;;;;;;;6.70;5.30;;;;;;;;;;5001443;28;20069;-58
2023/08/21 08:30:42;;;;;;;9.90;6.00;;;;;;;;;;5001983;28;20089;-59
2023/08/21 08:33:11;;;;;;;9.52;6.60;;;;;;;;;;5003459;28;20054;-59
2023/08/21 08:35:41;;;;;;;8.65;5.90;;;;;;;;;;5002709;28;20042;-60
2023/08/21 08:38:09;;;;;;;12.52;5.95;;;;;;;;;;5004712;28;20043;-60
2023/08/21 08:40:40;;;;;;;9.07;5.82;;;;;;;;;;5002030;28;20050;-60
2023/08/21 08:43:08;;;;;;;11.75;6.07;;;;;;;;;;4999301;28;20556;-59
2023/08/21 08:45:38;;;;;;;10.40;6.22;;;;;;;;;;5001258;28;20057;-61
2023/08/21 08:48:07;;;;;;;10.02;6.10;;;;;;;;;;5003957;28;20050;-61
2023/08/21 08:50:39;;;;;;;10.48;6.20;;;;;;;;;;5004318;28;20072;-60
2023/08/21 08:53:09;;;;;;;12.52;6.25;;;;;;;;;;5003136;28;20054;-62
2023/08/21 08:55:44;;;;;;;9.23;6.20;;;;;;;;;;4995015;28;20184;-61
2023/08/21 08:58:13;;;;;;;10.27;5.70;;;;;;;;;;5007017;28;20056;-60
2023/08/21 09:00:41;;;;;;;9.32;5.55;;;;;;;;;;5003132;28;20042;-58
2023/08/21 09:03:12;;;;;;;7.32;5.18;;;;;;;;;;5008046;28;20506;-58
2023/08/21 09:05:42;;;;;;;7.38;5.10;;;;;;;;;;5005934;28;20391;-58
2023/08/21 09:08:14;;;;;;;7.32;5.10;;;;;;;;;;5003234;28;20459;-59
2023/08/21 09:10:45;;;;;;;14.32;6.43;;;;;;;;;;5004050;28;20042;-60
2023/08/21 09:13:15;;;;;;;8.23;4.70;;;;;;;;;;5006425;28;20042;-59
2023/08/21 09:15:44;;;;;;;10.75;5.82;;;;;;;;;;5005577;28;20056;-59
2023/08/21 09:18:12;;;;;;;9.98;5.57;;;;;;;;;;5001995;28;20053;-61
2023/08/21 09:20:42;;;;;;;8.98;5.45;;;;;;;;;;5006190;28;20124;-63
2023/08/21 09:23:14;;;;;;;9.40;4.60;;;;;;;;;;5007303;28;20045;-60
2023/08/21 09:25:46;;;;;;;7.13;4.72;;;;;;;;;;5007934;28;20446;-58
2023/08/21 09:28:15;;;;;;;5.72;4.72;;;;;;;;;;5005353;28;20491;-58
2023/08/21 09:30:47;;;;;;;7.63;4.70;;;;;;;;;;5006021;28;20057;-58
2023/08/21 09:33:18;;;;;;;6.15;4.38;;;;;;;;;;5005216;28;20046;-58
2023/08/21 09:35:47;;;;;;;5.95;4.85;;;;;;;;;;5007178;28;20562;-60
2023/08/21 09:38:16;;;;;;;7.38;4.45;;;;;;;;;;5008290;28;20049;-59
2023/08/21 09:40:45;;;;;;;5.43;4.47;;;;;;;;;;5000868;28;20598;-62
2023/08/21 09:43:13;;;;;;;7.40;4.65;;;;;;;;;;5001268;28;20077;-60
2023/08/21 09:45:42;;;;;;;6.30;4.50;;;;;;;;;;5006050;28;20486;-61
2023/08/21 09:48:10;;;;;;;6.97;4.95;;;;;;;;;;5004042;28;20151;-59
2023/08/21 09:50:40;;;;;;;5.57;4.70;;;;;;;;;;5005094;28;20839;-61
2023/08/21 09:53:10;;;;;;;7.68;4.85;;;;;;;;;;5004011;28;20076;-59
2023/08/21 09:55:40;;;;;;;10.90;5.10;;;;;;;;;;4999703;28;20765;-61
2023/08/21 09:58:08;;;;;;;10.00;5.13;;;;;;;;;;5003805;28;20046;-58
2023/08/21 10:00:39;;;;;;;6.50;4.72;;;;;;;;;;5005155;28;20057;-60
2023/08/21 10:03:09;;;;;;;5.30;4.07;;;;;;;;;;5005341;28;20053;-58
2023/08/21 10:05:39;;;;;;;4.93;4.15;;;;;;;;;;5000533;28;20120;-62
2023/08/21 10:08:09;;;;;;;8.02;4.78;;;;;;;;;;5006043;28;20426;-58
2023/08/21 10:10:39;;;;;;;5.88;4.82;;;;;;;;;;5005110;28;20312;-61
2023/08/21 10:13:09;;;;;;;7.22;4.82;;;;;;;;;;5003813;28;20107;-60
2023/08/21 10:15:38;;;;;;;8.23;4.50;;;;;;;;;;5005554;28;20450;-60
2023/08/21 10:18:23;;;;;;;4.82;4.13;;;;;;;;;;5002812;28;20042;-61
2023/08/21 10:20:52;;;;;;;5.97;4.90;;;;;;;;;;4994451;28;20056;-64
2023/08/21 10:23:28;;;;;;;7.90;4.45;;;;;;;;;;4997651;28;20054;-60
2023/08/21 10:25:58;;;;;;;6.40;3.80;;;;;;;;;;5000602;28;20085;-58
2023/08/21 10:28:42;;;;;;;4.70;3.80;;;;;;;;;;5001154;28;20475;-58
2023/08/21 10:31:30;;;;;;;5.07;3.80;;;;;;;;;;5005473;28;20112;-60
2023/08/21 10:33:59;;;;;;;5.72;4.00;;;;;;;;;;5007207;28;20049;-59
2023/08/21 10:36:47;;;;;;;5.55;4.18;;;;;;;;;;5004356;28;20046;-61
2023/08/21 10:39:16;;;;;;;5.03;4.18;;;;;;;;;;4998808;28;20046;-61
2023/08/21 10:41:56;;;;;;;7.22;3.47;;;;;;;;;;5001726;28;20042;-60
2023/08/21 10:44:37;;;;;;;5.53;3.35;;;;;;;;;;5001335;28;20057;-59
2023/08/21 10:47:16;;;;;;;5.47;3.80;;;;;;;;;;4999051;28;20042;-62
2023/08/21 10:49:46;;;;;;;6.65;3.35;;;;;;;;;;5004124;28;20046;-60
2023/08/21 10:52:15;;;;;;;4.63;3.67;;;;;;;;;;5003051;28;20565;-65
2023/08/21 10:54:50;;;;;;;5.85;3.30;;;;;;;;;;5005015;28;20073;-59
2023/08/21 10:57:20;;;;;;;6.50;3.47;;;;;;;;;;4999775;28;20100;-61
2023/08/21 10:59:55;;;;;;;3.85;3.30;;;;;;;;;;5003446;28;20451;-59
2023/08/21 11:02:24;;;;;;;4.82;3.58;;;;;;;;;;5005168;28;20042;-59
2023/08/21 11:04:52;;;;;;;4.18;3.38;;;;;;;;;;5004724;28;20054;-59
2023/08/21 11:07:21;;;;;;;4.95;3.60;;;;;;;;;;4996939;28;20494;-59
2023/08/21 11:09:50;;;;;;;5.00;3.50;;;;;;;;;;5002170;28;20463;-59
2023/08/21 11:12:21;;;;;;;4.75;3.97;;;;;;;;;;4999561;28;20104;-60
2023/08/21 11:14:49;;;;;;;5.20;3.63;;;;;;;;;;5003765;28;20127;-60
2023/08/21 11:17:19;;;;;;;4.35;3.22;;;;;;;;;;5003153;28;20076;-61
2023/08/21 11:19:49;;;;;;;4.15;3.40;;;;;;;;;;5001441;28;20049;-59
2023/08/21 11:22:18;;;;;;;9.52;4.13;;;;;;;;;;5000236;28;20042;-61
2023/08/21 11:24:47;;;;;;;4.88;3.67;;;;;;;;;;5004837;28;20050;-61
2023/08/21 11:27:16;;;;;;;4.43;3.25;;;;;;;;;;4993699;28;20060;-60
2023/08/21 11:29:46;;;;;;;4.38;3.83;;;;;;;;;;5002968;28;20163;-59
2023/08/21 11:32:16;;;;;;;4.63;3.80;;;;;;;;;;5003669;28;20069;-61
2023/08/21 11:34:48;;;;;;;5.07;3.38;;;;;;;;;;5001834;28;20487;-62
2023/08/21 11:37:18;;;;;;;4.53;3.60;;;;;;;;;;5002801;28;20060;-65
2023/08/21 11:39:47;;;;;;;4.93;3.42;;;;;;;;;;5002273;28;20045;-60
2023/08/21 11:42:16;;;;;;;4.03;3.42;;;;;;;;;;5002418;28;20085;-59
2023/08/21 11:44:47;;;;;;;5.55;3.30;;;;;;;;;;4997927;28;20050;-59
2023/08/21 11:47:16;;;;;;;4.28;3.33;;;;;;;;;;5003932;28;20042;-60
2023/08/21 11:49:47;;;;;;;4.68;3.55;;;;;;;;;;5004171;28;20053;-59
2023/08/21 11:52:15;;;;;;;8.07;3.65;;;;;;;;;;5003856;28;20045;-64
2023/08/21 11:54:44;;;;;;;6.82;3.58;;;;;;;;;;5003874;28;20046;-59
2023/08/21 11:57:14;;;;;;;7.28;3.10;;;;;;;;;;5000242;28;20451;-60
2023/08/21 11:59:43;;;;;;;5.25;3.45;;;;;;;;;;5002993;28;20144;-60
2023/08/21 12:02:15;;;;;;;4.38;3.13;;;;;;;;;;4999631;28;20529;-59
2023/08/21 12:04:44;;;;;;;4.85;3.53;;;;;;;;;;5001102;28;20568;-61
2023/08/21 12:07:13;;;;;;;6.15;2.88;;;;;;;;;;5002650;28;20495;-58
2023/08/21 12:09:48;;;;;;;3.50;2.85;;;;;;;;;;4998013;28;20053;-64
2023/08/21 12:12:16;;;;;;;4.93;3.28;;;;;;;;;;4998684;28;20780;-60
2023/08/21 12:14:45;;;;;;;5.88;3.05;;;;;;;;;;5003123;28;20073;-61
2023/08/21 12:17:14;;;;;;;4.85;3.20;;;;;;;;;;5003884;28;20095;-60
2023/08/21 12:19:43;;;;;;;4.22;2.88;;;;;;;;;;5000545;28;20088;-59
2023/08/21 12:22:12;;;;;;;6.43;3.40;;;;;;;;;;5000732;28;20380;-58
2023/08/21 12:24:41;;;;;;;5.80;3.60;;;;;;;;;;5002219;28;20058;-61
2023/08/21 12:27:09;;;;;;;4.45;3.53;;;;;;;;;;5001131;28;20070;-59
2023/08/21 12:29:37;;;;;;;6.38;4.00;;;;;;;;;;5002569;28;20096;-61
2023/08/21 12:32:06;;;;;;;4.88;3.83;;;;;;;;;;5005050;28;20058;-59
2023/08/21 12:34:36;;;;;;;6.95;3.90;;;;;;;;;;5007096;28;20061;-58
2023/08/21 12:37:04;;;;;;;4.15;3.58;;;;;;;;;;5007440;28;20042;-60
2023/08/21 12:39:33;;;;;;;5.88;3.65;;;;;;;;;;5004333;28;20041;-61
2023/08/21 12:42:01;;;;;;;6.78;3.53;;;;;;;;;;5003984;28;20057;-59
2023/08/21 12:44:29;;;;;;;6.38;3.70;;;;;;;;;;5005692;28;20133;-60
2023/08/21 12:46:58;;;;;;;4.93;3.70;;;;;;;;;;5007646;28;20717;-60
2023/08/21 12:49:26;;;;;;;5.35;3.63;;;;;;;;;;5003191;28;20594;-65
2023/08/21 12:51:56;;;;;;;4.90;3.55;;;;;;;;;;5004080;28;20503;-59
2023/08/21 12:54:24;;;;;;;5.45;3.60;;;;;;;;;;5005751;28;20289;-59
2023/08/21 12:56:53;;;;;;;5.13;3.70;;;;;;;;;;5006125;28;20053;-59
2023/08/21 12:59:22;;;;;;;4.53;3.42;;;;;;;;;;5008623;28;20057;-59
2023/08/21 13:01:50;;;;;;;5.43;4.10;;;;;;;;;;5005932;28;20127;-62
2023/08/21 13:04:19;;;;;;;6.40;4.25;;;;;;;;;;5005863;28;20137;-60
2023/08/21 13:06:47;;;;;;;6.32;3.80;;;;;;;;;;5000156;28;20085;-60
2023/08/21 13:09:17;;;;;;;8.95;3.92;;;;;;;;;;5000501;28;20104;-60
2023/08/21 13:11:45;;;;;;;6.30;4.20;;;;;;;;;;5002736;28;20049;-61
2023/08/21 13:14:13;;;;;;;4.90;3.47;;;;;;;;;;5007417;28;20139;-61
2023/08/21 13:16:42;;;;;;;5.57;4.28;;;;;;;;;;5004311;28;20155;-60
2023/08/21 13:19:10;;;;;;;4.22;3.50;;;;;;;;;;5003121;28;20050;-60
2023/08/21 13:21:38;;;;;;;6.28;3.53;;;;;;;;;;5003840;28;20050;-59
2023/08/21 13:24:07;;;;;;;6.90;3.30;;;;;;;;;;5004831;28;20522;-61
2023/08/21 13:26:37;;;;;;;5.68;3.42;;;;;;;;;;5004233;28;20495;-59
2023/08/21 13:29:07;;;;;;;4.78;3.45;;;;;;;;;;5003481;28;20131;-60
2023/08/21 13:31:36;;;;;;;5.60;3.67;;;;;;;;;;5003917;28;20145;-62
2023/08/21 13:34:04;;;;;;;5.00;3.58;;;;;;;;;;5002496;28;20057;-60
2023/08/21 13:36:35;;;;;;;4.80;3.75;;;;;;;;;;5003295;28;20068;-59
2023/08/21 13:39:05;;;;;;;4.05;3.60;;;;;;;;;;5005164;28;20152;-59
2023/08/21 13:41:34;;;;;;;4.65;3.90;;;;;;;;;;5001335;28;20069;-60
2023/08/21 13:44:04;;;;;;;4.15;3.65;;;;;;;;;;4999710;28;20069;-60
2023/08/21 13:46:34;;;;;;;5.32;3.83;;;;;;;;;;4999083;28;20042;-60
2023/08/21 13:49:03;;;;;;;4.68;4.10;;;;;;;;;;5003065;28;20129;-59
2023/08/21 13:51:31;;;;;;;5.57;4.00;;;;;;;;;;5003454;28;20475;-60
2023/08/21 13:53:59;;;;;;;4.60;4.05;;;;;;;;;;5000783;28;20113;-63
2023/08/21 13:56:28;;;;;;;6.70;4.30;;;;;;;;;;5003067;28;20125;-59
2023/08/21 13:58:57;;;;;;;7.00;4.03;;;;;;;;;;5005095;28;20160;-59
2023/08/21 14:01:27;;;;;;;9.10;4.22;;;;;;;;;;5003447;28;20045;-60
2023/08/21 14:03:55;;;;;;;6.45;3.78;;;;;;;;;;5003811;28;20145;-60
2023/08/21 14:06:24;;;;;;;7.53;4.00;;;;;;;;;;4998864;28;20046;-62
2023/08/21 14:08:52;;;;;;;6.00;3.42;;;;;;;;;;5001022;28;20049;-60
2023/08/21 14:11:21;;;;;;;4.97;3.67;;;;;;;;;;5001731;28;20061;-59
2023/08/21 14:13:49;;;;;;;5.68;3.80;;;;;;;;;;4999964;28;20054;-58
2023/08/21 14:16:17;;;;;;;4.63;4.13;;;;;;;;;;5001169;28;20074;-65
2023/08/21 14:18:47;;;;;;;5.70;4.00;;;;;;;;;;5003643;28;20040;-64
2023/08/21 14:21:16;;;;;;;5.07;3.78;;;;;;;;;;5004597;28;20046;-61
2023/08/21 14:23:44;;;;;;;5.95;4.15;;;;;;;;;;5005329;28;20104;-59
2023/08/21 14:26:12;;;;;;;4.57;4.10;;;;;;;;;;5002189;28;20053;-59
2023/08/21 14:28:41;;;;;;;5.10;3.95;;;;;;;;;;4998380;28;20105;-64
2023/08/21 14:31:09;;;;;;;7.82;4.30;;;;;;;;;;4994647;28;20054;-59
2023/08/21 14:33:38;;;;;;;4.80;3.70;;;;;;;;;;5000041;28;20058;-62
2023/08/21 14:36:08;;;;;;;9.20;4.13;;;;;;;;;;4997769;28;20053;-66
2023/08/21 14:38:36;;;;;;;5.30;3.95;;;;;;;;;;4999075;28;20050;-59
2023/08/21 14:41:04;;;;;;;8.55;3.72;;;;;;;;;;4998232;28;20078;-60
2023/08/21 14:43:33;;;;;;;5.78;3.80;;;;;;;;;;5001875;28;20127;-60
2023/08/21 14:46:01;;;;;;;4.78;3.65;;;;;;;;;;5000231;28;20680;-59
2023/08/21 14:48:29;;;;;;;9.13;3.95;;;;;;;;;;5001117;28;20565;-58
2023/08/21 14:50:58;;;;;;;4.70;3.80;;;;;;;;;;4997580;28;20077;-60